createdAt,value
2017-08-27T00:01:03.754Z,81.00
2017-08-27T00:03:29.773Z,81.20
2017-08-27T00:05:55.845Z,81.30
2017-08-27T00:08:21.886Z,81.30
2017-08-27T00:10:47.932Z,81.40
2017-08-27T00:13:14.318Z,81.30
2017-08-27T00:15:40.360Z,81.30
2017-08-27T00:18:06.406Z,82.30
2017-08-27T00:20:32.446Z,81.50
2017-08-27T00:22:58.556Z,81.60
2017-08-27T00:25:24.607Z,81.80
2017-08-27T00:27:50.660Z,81.30
2017-08-27T00:30:16.709Z,82.00
2017-08-27T00:32:42.762Z,82.00
2017-08-27T00:35:08.811Z,82.10
2017-08-27T00:37:34.870Z,82.70
2017-08-27T00:40:00.932Z,82.20
2017-08-27T00:42:26.986Z,82.10
2017-08-27T00:44:53.075Z,82.40
2017-08-27T00:47:19.152Z,83.00
2017-08-27T00:49:45.182Z,83.20
2017-08-27T00:52:11.278Z,83.90
2017-08-27T00:54:37.325Z,84.20
2017-08-27T00:57:03.381Z,84.30
2017-08-27T00:59:29.602Z,84.50
2017-08-27T01:01:55.648Z,84.70
2017-08-27T01:04:21.854Z,84.70
2017-08-27T01:06:47.902Z,84.80
2017-08-27T01:09:13.947Z,85.20
2017-08-27T01:11:40.018Z,85.30
2017-08-27T01:14:06.911Z,85.50
2017-08-27T01:16:32.938Z,85.20
2017-08-27T01:18:59.371Z,85.20
2017-08-27T01:21:25.442Z,85.20
2017-08-27T01:23:51.487Z,85.30
2017-08-27T01:26:17.582Z,85.20
2017-08-27T01:28:43.635Z,85.40
2017-08-27T01:31:09.679Z,85.80
2017-08-27T01:33:35.719Z,86.10
2017-08-27T01:36:01.735Z,86.20
2017-08-27T01:38:28.574Z,86.30
2017-08-27T01:40:54.590Z,86.70
2017-08-27T01:43:20.621Z,86.60
2017-08-27T01:45:46.692Z,86.40
2017-08-27T01:48:12.748Z,87.10
2017-08-27T01:50:38.788Z,86.20
2017-08-27T01:53:04.850Z,86.10
2017-08-27T01:55:30.891Z,86.20
2017-08-27T01:57:56.982Z,85.90
2017-08-27T02:00:23.063Z,85.90
2017-08-27T02:02:49.118Z,85.90
2017-08-27T02:05:15.147Z,85.90
2017-08-27T02:07:41.595Z,85.90
2017-08-27T02:10:07.626Z,86.00
2017-08-27T02:12:33.647Z,86.00
2017-08-27T02:14:59.734Z,85.50
2017-08-27T02:17:25.788Z,85.80
2017-08-27T02:19:51.854Z,85.70
2017-08-27T02:22:17.955Z,85.50
2017-08-27T02:24:43.998Z,85.30
2017-08-27T02:27:10.055Z,85.30
2017-08-27T02:29:36.202Z,85.40
2017-08-27T02:32:02.231Z,85.30
2017-08-27T02:34:28.320Z,85.10
2017-08-27T02:36:54.593Z,85.10
2017-08-27T02:39:20.619Z,85.10
2017-08-27T02:41:46.639Z,85.00
2017-08-27T02:44:12.896Z,85.00
2017-08-27T02:46:38.972Z,85.20
2017-08-27T02:49:05.010Z,84.90
2017-08-27T02:51:31.086Z,85.50
2017-08-27T02:53:57.122Z,84.70
2017-08-27T02:56:23.161Z,84.60
2017-08-27T02:58:49.232Z,84.60
2017-08-27T03:01:15.287Z,84.80
2017-08-27T03:03:41.345Z,84.80
2017-08-27T03:06:07.379Z,85.00
2017-08-27T03:08:33.410Z,85.20
2017-08-27T03:10:59.799Z,84.90
2017-08-27T03:13:25.838Z,85.20
2017-08-27T03:15:51.868Z,85.10
2017-08-27T03:18:17.978Z,85.40
2017-08-27T03:20:44.001Z,85.20
2017-08-27T03:23:10.025Z,85.20
2017-08-27T03:25:36.081Z,85.40
2017-08-27T03:28:02.114Z,85.40
2017-08-27T03:30:28.142Z,85.40
2017-08-27T03:32:54.158Z,85.40
2017-08-27T03:35:20.175Z,85.60
2017-08-27T03:37:46.259Z,86.30
2017-08-27T03:40:12.284Z,85.80
2017-08-27T03:42:38.309Z,85.90
2017-08-27T03:45:04.760Z,86.50
2017-08-27T03:47:30.771Z,86.40
2017-08-27T03:49:56.796Z,86.30
2017-08-27T03:52:22.979Z,86.10
2017-08-27T03:54:48.998Z,87.00
2017-08-27T03:57:15.010Z,86.20
2017-08-27T03:59:41.095Z,86.30
2017-08-27T04:02:07.233Z,86.30
2017-08-27T04:04:33.319Z,86.50
2017-08-27T04:06:59.344Z,86.50
2017-08-27T04:09:25.367Z,86.60
2017-08-27T04:11:51.662Z,86.50
2017-08-27T04:14:17.703Z,86.50
2017-08-27T04:16:43.719Z,86.50
2017-08-27T04:19:09.790Z,86.80
2017-08-27T04:21:35.837Z,86.90
2017-08-27T04:24:01.868Z,87.10
2017-08-27T04:26:28.318Z,87.40
2017-08-27T04:28:54.365Z,87.30
2017-08-27T04:31:20.414Z,87.40
2017-08-27T04:33:46.426Z,87.50
2017-08-27T04:36:12.516Z,87.40
2017-08-27T04:38:38.555Z,87.40
2017-08-27T04:41:04.572Z,87.30
2017-08-27T04:43:30.962Z,87.00
2017-08-27T04:45:57.071Z,87.10
2017-08-27T04:48:23.262Z,86.90
2017-08-27T04:50:49.358Z,86.80
2017-08-27T04:53:15.398Z,87.60
2017-08-27T04:55:41.406Z,87.10
2017-08-27T04:58:07.456Z,86.90
2017-08-27T05:00:33.506Z,86.90
2017-08-27T05:02:59.571Z,87.00
2017-08-27T05:05:25.639Z,87.20
2017-08-27T05:07:51.675Z,87.00
2017-08-27T05:10:17.769Z,87.10
2017-08-27T05:12:43.825Z,87.60
2017-08-27T05:15:09.858Z,86.70
2017-08-27T05:17:35.875Z,87.10
2017-08-27T05:20:01.918Z,87.10
2017-08-27T05:22:27.934Z,87.10
2017-08-27T05:24:53.954Z,87.00
2017-08-27T05:27:20.367Z,87.10
2017-08-27T05:29:46.453Z,87.40
2017-08-27T05:32:12.491Z,87.60
2017-08-27T05:34:38.566Z,88.00
2017-08-27T05:37:04.599Z,87.40
2017-08-27T05:39:30.638Z,87.40
2017-08-27T05:41:56.662Z,87.40
2017-08-27T05:44:25.197Z,87.10
2017-08-27T05:46:51.260Z,86.90
2017-08-27T05:49:17.275Z,86.50
2017-08-27T05:51:43.318Z,86.40
2017-08-27T05:54:09.678Z,86.20
2017-08-27T05:56:35.720Z,86.20
2017-08-27T05:59:01.765Z,86.20
2017-08-27T06:01:28.056Z,86.00
2017-08-27T06:03:54.235Z,85.50
2017-08-27T06:06:20.258Z,85.60
2017-08-27T06:08:46.303Z,85.10
2017-08-27T06:11:12.342Z,84.50
2017-08-27T06:13:38.394Z,84.50
2017-08-27T06:16:04.414Z,84.70
2017-08-27T06:18:30.474Z,84.50
2017-08-27T06:20:56.506Z,84.60
2017-08-27T06:23:22.602Z,84.10
2017-08-27T06:25:48.639Z,83.80
2017-08-27T06:28:14.691Z,83.80
2017-08-27T06:30:40.778Z,83.50
2017-08-27T06:33:06.803Z,83.40
2017-08-27T06:35:32.880Z,83.00
2017-08-27T06:37:58.942Z,82.70
2017-08-27T06:42:17.143Z,81.60
2017-08-27T06:44:43.238Z,81.20
2017-08-27T06:47:09.267Z,80.70
2017-08-27T06:49:35.319Z,81.00
2017-08-27T06:52:01.370Z,80.90
2017-08-27T06:54:27.443Z,80.90
2017-08-27T06:56:53.494Z,80.30
2017-08-27T06:59:19.534Z,80.20
2017-08-27T07:01:45.563Z,80.00
2017-08-27T07:04:11.591Z,79.00
2017-08-27T07:06:37.653Z,78.80
2017-08-27T07:09:03.714Z,78.50
2017-08-27T07:11:29.734Z,77.80
2017-08-27T07:13:55.800Z,77.10
2017-08-27T07:16:21.830Z,77.20
2017-08-27T07:18:47.871Z,76.70
2017-08-27T07:21:13.895Z,76.30
2017-08-27T07:23:39.946Z,75.50
2017-08-27T07:26:06.334Z,75.40
2017-08-27T07:28:32.429Z,74.60
2017-08-27T07:30:58.499Z,73.50
2017-08-27T07:33:24.590Z,72.60
2017-08-27T07:35:50.620Z,73.60
2017-08-27T07:38:16.662Z,72.40
2017-08-27T07:40:43.011Z,72.90
2017-08-27T07:43:09.060Z,73.00
2017-08-27T07:45:35.167Z,71.50
2017-08-27T07:48:01.468Z,71.40
2017-08-27T07:50:27.514Z,70.90
2017-08-27T07:52:53.545Z,71.10
2017-08-27T07:55:19.578Z,71.60
2017-08-27T07:57:45.607Z,71.70
2017-08-27T08:00:11.659Z,70.30
2017-08-27T08:02:37.818Z,69.70
2017-08-27T08:05:03.854Z,69.60
2017-08-27T08:07:29.920Z,69.60
2017-08-27T08:09:55.954Z,68.10
2017-08-27T08:12:22.011Z,68.80
2017-08-27T08:14:48.083Z,69.00
2017-08-27T08:17:14.142Z,68.30
2017-08-27T08:19:40.199Z,68.40
2017-08-27T08:22:06.222Z,69.00
2017-08-27T08:24:32.274Z,68.90
2017-08-27T08:26:58.328Z,68.80
2017-08-27T08:29:24.358Z,68.10
2017-08-27T08:31:50.402Z,68.40
2017-08-27T08:34:16.428Z,67.70
2017-08-27T08:36:42.508Z,68.70
2017-08-27T08:39:08.722Z,69.30
2017-08-27T08:41:34.823Z,68.20
2017-08-27T08:44:00.878Z,67.80
2017-08-27T08:46:26.936Z,67.80
2017-08-27T08:48:52.987Z,68.20
2017-08-27T08:51:19.536Z,68.40
2017-08-27T08:53:45.618Z,68.40
2017-08-27T08:56:11.702Z,69.00
2017-08-27T08:58:37.905Z,68.70
2017-08-27T09:01:03.920Z,67.80
2017-08-27T09:03:29.970Z,67.60
2017-08-27T09:05:56.294Z,68.00
2017-08-27T09:08:22.314Z,68.60
2017-08-27T09:10:48.382Z,68.70
2017-08-27T09:13:14.440Z,69.80
2017-08-27T09:15:40.454Z,70.40
2017-08-27T09:18:06.488Z,70.50
2017-08-27T09:20:32.521Z,70.60
2017-08-27T09:22:58.574Z,69.50
2017-08-27T09:25:24.634Z,69.00
2017-08-27T09:27:50.687Z,67.80
2017-08-27T09:30:16.729Z,67.80
2017-08-27T09:32:42.738Z,67.50
2017-08-27T09:35:08.832Z,66.70
2017-08-27T09:37:34.862Z,66.80
2017-08-27T09:40:00.890Z,65.80
2017-08-27T09:42:26.934Z,65.60
2017-08-27T09:44:53.030Z,64.30
2017-08-27T09:47:19.079Z,64.30
2017-08-27T09:49:45.186Z,64.70
2017-08-27T09:52:11.206Z,65.80
2017-08-27T09:54:37.238Z,64.50
2017-08-27T09:57:03.312Z,61.20
2017-08-27T09:59:29.368Z,57.80
2017-08-27T10:01:55.395Z,56.60
2017-08-27T10:04:21.491Z,55.50
2017-08-27T10:06:47.507Z,54.80
2017-08-27T10:09:13.526Z,55.40
2017-08-27T10:11:39.606Z,55.00
2017-08-27T10:14:05.666Z,55.40
2017-08-27T10:16:31.707Z,53.90
2017-08-27T10:18:57.765Z,51.90
2017-08-27T10:21:23.958Z,51.10
2017-08-27T10:23:50.007Z,50.90
2017-08-27T10:26:16.028Z,52.10
2017-08-27T10:28:42.426Z,53.40
2017-08-27T10:31:08.442Z,55.60
2017-08-27T10:33:34.479Z,56.50
2017-08-27T10:36:00.538Z,54.90
2017-08-27T10:38:26.575Z,52.90
2017-08-27T10:40:52.636Z,53.40
2017-08-27T10:43:18.704Z,53.80
2017-08-27T10:45:44.785Z,53.70
2017-08-27T10:48:10.828Z,55.20
2017-08-27T10:50:36.936Z,55.60
2017-08-27T10:53:03.036Z,56.90
2017-08-27T10:55:29.107Z,57.30
2017-08-27T10:57:55.303Z,57.20
2017-08-27T11:00:21.339Z,55.40
2017-08-27T11:02:47.355Z,55.00
2017-08-27T11:05:13.386Z,54.10
2017-08-27T11:07:39.439Z,54.00
2017-08-27T11:10:05.818Z,53.20
2017-08-27T11:12:31.858Z,53.50
2017-08-27T11:14:57.891Z,53.70
2017-08-27T11:17:23.942Z,54.60
2017-08-27T11:19:49.942Z,55.50
2017-08-27T11:22:15.978Z,55.70
2017-08-27T11:24:43.275Z,56.10
2017-08-27T11:27:09.352Z,57.00
2017-08-27T11:29:35.387Z,55.50
2017-08-27T11:32:01.674Z,55.60
2017-08-27T11:34:27.875Z,56.00
2017-08-27T11:36:53.918Z,56.10
2017-08-27T11:39:19.963Z,56.10
2017-08-27T11:41:46.009Z,55.40
2017-08-27T11:44:12.085Z,56.10
2017-08-27T11:46:38.319Z,56.50
2017-08-27T11:49:04.488Z,57.10
2017-08-27T11:51:30.579Z,56.10
2017-08-27T11:53:56.874Z,55.50
2017-08-27T11:56:23.366Z,55.20
2017-08-27T11:58:49.422Z,55.40
2017-08-27T12:01:15.542Z,55.90
2017-08-27T12:03:41.634Z,56.20
2017-08-27T12:06:07.658Z,56.90
2017-08-27T12:08:33.744Z,56.40
2017-08-27T12:11:00.685Z,55.50
2017-08-27T12:13:26.702Z,55.30
2017-08-27T12:15:53.106Z,55.30
2017-08-27T12:18:19.161Z,55.90
2017-08-27T12:20:45.214Z,55.60
2017-08-27T12:23:11.523Z,54.80
2017-08-27T12:25:37.571Z,55.40
2017-08-27T12:28:03.619Z,55.00
2017-08-27T12:30:30.402Z,55.10
2017-08-27T12:32:56.658Z,54.80
2017-08-27T12:35:22.696Z,54.40
2017-08-27T12:37:48.934Z,51.80
2017-08-27T12:40:14.962Z,52.70
2017-08-27T12:42:41.299Z,52.40
2017-08-27T12:45:07.723Z,53.10
2017-08-27T12:47:33.746Z,51.60
2017-08-27T12:49:59.762Z,48.60
2017-08-27T12:52:25.795Z,50.30
2017-08-27T12:54:51.878Z,49.40
2017-08-27T12:57:17.940Z,49.90
2017-08-27T12:59:44.094Z,50.50
2017-08-27T13:02:10.205Z,51.00
2017-08-27T13:04:36.253Z,51.10
2017-08-27T13:07:02.526Z,52.40
2017-08-27T13:09:29.300Z,52.30
2017-08-27T13:11:55.344Z,51.10
2017-08-27T13:14:21.382Z,50.70
2017-08-27T13:16:47.434Z,52.10
2017-08-27T13:19:13.482Z,50.90
2017-08-27T13:21:42.796Z,50.30
2017-08-27T13:24:08.879Z,50.60
2017-08-27T13:26:34.907Z,51.40
2017-08-27T13:29:00.964Z,50.50
2017-08-27T13:31:27.256Z,49.90
2017-08-27T13:33:57.813Z,49.50
2017-08-27T13:36:24.399Z,50.40
2017-08-27T13:38:50.447Z,50.50
2017-08-27T13:41:16.506Z,51.40
2017-08-27T13:43:42.543Z,51.50
2017-08-27T13:46:08.615Z,50.50
2017-08-27T13:48:34.690Z,50.70
2017-08-27T13:51:00.754Z,50.70
2017-08-27T13:53:26.795Z,51.50
2017-08-27T13:55:52.827Z,51.80
2017-08-27T13:58:18.861Z,50.70
2017-08-27T14:00:44.903Z,50.70
2017-08-27T14:03:10.924Z,51.40
2017-08-27T14:05:36.964Z,51.50
2017-08-27T14:08:03.195Z,50.60
2017-08-27T14:10:29.235Z,50.40
2017-08-27T14:12:55.262Z,50.80
2017-08-27T14:15:21.293Z,51.40
2017-08-27T14:17:47.322Z,51.50
2017-08-27T14:20:13.339Z,50.90
2017-08-27T14:22:39.622Z,50.90
2017-08-27T14:25:05.670Z,50.90
2017-08-27T14:27:31.686Z,49.40
2017-08-27T14:29:57.742Z,50.50
2017-08-27T14:32:23.799Z,50.60
2017-08-27T14:34:49.834Z,50.90
2017-08-27T14:37:16.198Z,50.80
2017-08-27T14:39:42.238Z,51.60
2017-08-27T14:42:08.658Z,52.20
2017-08-27T14:44:34.795Z,51.60
2017-08-27T14:47:00.805Z,52.30
2017-08-27T14:49:26.922Z,53.00
2017-08-27T14:51:53.093Z,53.00
2017-08-27T14:54:19.110Z,52.00
2017-08-27T14:56:45.139Z,52.50
2017-08-27T14:59:11.470Z,52.70
2017-08-27T15:01:37.500Z,53.50
2017-08-27T15:04:03.512Z,52.40
2017-08-27T15:06:29.734Z,52.70
2017-08-27T15:08:55.760Z,53.20
2017-08-27T15:11:21.815Z,53.60
2017-08-27T15:13:48.114Z,53.60
2017-08-27T15:16:14.165Z,53.80
2017-08-27T15:18:40.182Z,54.00
2017-08-27T15:21:06.238Z,53.40
2017-08-27T15:23:32.290Z,53.50
2017-08-27T15:25:58.342Z,54.20
2017-08-27T15:28:24.413Z,54.20
2017-08-27T15:30:50.447Z,53.70
2017-08-27T15:33:16.498Z,54.00
2017-08-27T15:35:42.583Z,53.10
2017-08-27T15:38:08.632Z,53.90
2017-08-27T15:40:34.658Z,54.30
2017-08-27T15:43:00.712Z,54.90
2017-08-27T15:45:26.735Z,55.20
2017-08-27T15:47:52.811Z,54.60
2017-08-27T15:50:19.299Z,54.40
2017-08-27T15:52:45.381Z,54.50
2017-08-27T15:55:11.438Z,54.40
2017-08-27T15:57:37.506Z,54.80
2017-08-27T16:00:03.558Z,55.30
2017-08-27T16:02:29.618Z,54.30
2017-08-27T16:04:55.686Z,53.40
2017-08-27T16:07:21.744Z,54.30
2017-08-27T16:09:47.819Z,54.20
2017-08-27T16:12:13.871Z,54.50
2017-08-27T16:14:39.910Z,54.90
2017-08-27T16:17:05.958Z,55.50
2017-08-27T16:19:32.228Z,56.20
2017-08-27T16:21:58.262Z,56.30
2017-08-27T16:24:24.330Z,56.40
2017-08-27T16:26:50.414Z,55.70
2017-08-27T16:29:16.582Z,55.30
2017-08-27T16:31:42.664Z,54.90
2017-08-27T16:34:08.774Z,55.10
2017-08-27T16:36:34.819Z,55.00
2017-08-27T16:39:00.876Z,56.20
2017-08-27T16:41:26.947Z,56.70
2017-08-27T16:43:52.987Z,57.00
2017-08-27T16:46:19.094Z,57.10
2017-08-27T16:48:45.741Z,57.70
2017-08-27T16:51:11.905Z,57.60
2017-08-27T16:53:37.966Z,58.40
2017-08-27T16:56:04.051Z,58.80
2017-08-27T16:58:30.111Z,58.90
2017-08-27T17:00:56.159Z,58.10
2017-08-27T17:03:22.240Z,58.90
2017-08-27T17:05:48.270Z,59.10
2017-08-27T17:08:14.395Z,59.20
2017-08-27T17:10:40.496Z,59.30
2017-08-27T17:13:06.543Z,59.80
2017-08-27T17:15:32.865Z,59.30
2017-08-27T17:17:59.143Z,59.40
2017-08-27T17:20:25.192Z,59.50
2017-08-27T17:22:51.294Z,59.00
2017-08-27T17:25:17.364Z,59.30
2017-08-27T17:27:43.462Z,59.50
2017-08-27T17:30:09.523Z,59.70
2017-08-27T17:32:43.359Z,60.20
2017-08-27T17:35:09.432Z,60.30
2017-08-27T17:37:35.480Z,60.70
2017-08-27T17:40:01.564Z,61.00
2017-08-27T17:42:27.765Z,61.30
2017-08-27T17:44:53.841Z,61.00
2017-08-27T17:47:19.958Z,61.00
2017-08-27T17:49:46.064Z,61.40
2017-08-27T17:52:12.133Z,61.30
2017-08-27T17:54:38.218Z,61.80
2017-08-27T17:57:04.272Z,62.10
2017-08-27T17:59:30.339Z,62.80
2017-08-27T18:01:56.380Z,63.30
2017-08-27T18:04:22.727Z,63.20
2017-08-27T18:06:48.767Z,63.50
2017-08-27T18:09:14.834Z,63.90
2017-08-27T18:11:40.906Z,64.50
2017-08-27T18:14:06.975Z,64.20
2017-08-27T18:16:33.007Z,64.10
2017-08-27T18:18:59.054Z,64.70
2017-08-27T18:21:25.081Z,65.30
2017-08-27T18:23:51.119Z,65.30
2017-08-27T18:26:17.283Z,65.80
2017-08-27T18:28:43.367Z,66.60
2017-08-27T18:31:09.434Z,66.90
2017-08-27T18:33:35.558Z,66.70
2017-08-27T18:36:01.630Z,67.00
2017-08-27T18:38:27.814Z,67.40
2017-08-27T18:40:53.857Z,67.20
2017-08-27T18:43:19.984Z,67.40
2017-08-27T18:45:46.018Z,67.90
2017-08-27T18:48:12.050Z,68.00
2017-08-27T18:50:38.147Z,68.30
2017-08-27T18:53:04.177Z,69.00
2017-08-27T18:55:30.217Z,69.20
2017-08-27T18:57:56.293Z,69.40
2017-08-27T19:00:22.334Z,69.50
2017-08-27T19:02:54.554Z,69.60
2017-08-27T19:05:20.826Z,69.80
2017-08-27T19:07:46.891Z,70.20
2017-08-27T19:10:12.938Z,70.50
2017-08-27T19:12:39.002Z,70.70
2017-08-27T19:15:05.098Z,70.90
2017-08-27T19:17:31.158Z,71.10
2017-08-27T19:19:57.272Z,71.40
2017-08-27T19:22:23.339Z,71.40
2017-08-27T19:24:49.391Z,71.60
2017-08-27T19:27:15.487Z,71.70
2017-08-27T19:29:41.570Z,71.70
2017-08-27T19:32:07.614Z,71.90
2017-08-27T19:34:33.663Z,72.00
2017-08-27T19:36:59.713Z,72.30
2017-08-27T19:39:25.760Z,72.30
2017-08-27T19:41:52.271Z,72.60
2017-08-27T19:44:18.339Z,72.50
2017-08-27T19:46:44.397Z,72.80
2017-08-27T19:49:10.442Z,72.90
2017-08-27T19:51:36.537Z,73.10
2017-08-27T19:54:02.558Z,73.30
2017-08-27T19:56:28.616Z,73.40
2017-08-27T19:58:54.679Z,73.70
2017-08-27T20:01:20.844Z,73.70
2017-08-27T20:03:46.897Z,73.70
2017-08-27T20:06:12.977Z,73.80
2017-08-27T20:08:39.106Z,74.00
2017-08-27T20:11:05.137Z,74.00
2017-08-27T20:13:31.179Z,74.00
2017-08-27T20:15:57.242Z,74.10
2017-08-27T20:18:23.348Z,74.30
2017-08-27T20:20:49.375Z,74.60
2017-08-27T20:23:15.751Z,74.60
2017-08-27T20:25:42.800Z,74.70
2017-08-27T20:28:08.847Z,74.80
2017-08-27T20:30:34.879Z,74.80
2017-08-27T20:33:01.030Z,74.90
2017-08-27T20:35:27.104Z,75.10
2017-08-27T20:37:53.170Z,75.30
2017-08-27T20:40:19.199Z,75.40
2017-08-27T20:42:45.261Z,75.60
2017-08-27T20:45:11.326Z,75.50
2017-08-27T20:47:37.392Z,75.40
2017-08-27T20:50:03.936Z,75.30
2017-08-27T20:52:30.012Z,75.40
2017-08-27T20:54:56.080Z,75.60
2017-08-27T20:57:22.387Z,75.70
2017-08-27T20:59:48.438Z,75.60
2017-08-27T21:02:14.851Z,75.40
2017-08-27T21:04:40.894Z,75.70
2017-08-27T21:07:06.922Z,75.40
2017-08-27T21:09:32.958Z,75.20
2017-08-27T21:11:59.067Z,75.40
2017-08-27T21:14:25.094Z,75.40
2017-08-27T21:16:51.184Z,75.60
2017-08-27T21:19:17.234Z,75.70
2017-08-27T21:21:43.315Z,76.60
2017-08-27T21:24:09.420Z,76.10
2017-08-27T21:26:35.805Z,76.00
2017-08-27T21:29:01.865Z,76.20
2017-08-27T21:31:27.999Z,76.40
2017-08-27T21:33:54.042Z,76.50
2017-08-27T21:36:20.089Z,76.80
2017-08-27T21:38:46.198Z,77.00
2017-08-27T21:41:12.310Z,77.20
2017-08-27T21:43:38.824Z,77.00
2017-08-27T21:46:05.481Z,76.50
2017-08-27T21:48:31.730Z,76.50
2017-08-27T21:50:58.087Z,76.70
2017-08-27T21:53:24.287Z,76.70
2017-08-27T21:55:50.450Z,76.90
2017-08-27T21:58:16.647Z,76.90
2017-08-27T22:00:42.815Z,76.80
2017-08-27T22:03:09.044Z,77.30
2017-08-27T22:05:35.327Z,77.30
2017-08-27T22:08:01.587Z,77.10
2017-08-27T22:10:27.773Z,77.00
2017-08-27T22:12:54.098Z,77.10
2017-08-27T22:15:20.261Z,77.70
2017-08-27T22:17:46.351Z,78.00
2017-08-27T22:20:12.598Z,78.00
2017-08-27T22:22:38.819Z,78.10
2017-08-27T22:25:04.851Z,78.00
2017-08-27T22:27:31.054Z,78.10
2017-08-27T22:29:57.160Z,78.00
2017-08-27T22:32:23.297Z,77.90
2017-08-27T22:34:50.302Z,77.80
2017-08-27T22:37:16.341Z,77.80
2017-08-27T22:39:42.443Z,78.00
2017-08-27T22:42:08.535Z,77.90
2017-08-27T22:44:34.583Z,78.00
2017-08-27T22:47:00.627Z,78.00
2017-08-27T22:49:26.654Z,78.30
2017-08-27T22:51:52.787Z,78.40
2017-08-27T22:54:18.828Z,78.50
2017-08-27T22:56:44.866Z,78.70
2017-08-27T22:59:11.250Z,78.70
2017-08-27T23:01:37.295Z,78.70
2017-08-27T23:04:03.518Z,78.70
2017-08-27T23:06:29.712Z,78.90
2017-08-27T23:08:55.891Z,78.90
2017-08-27T23:11:22.204Z,79.10
2017-08-27T23:13:48.433Z,78.70
2017-08-27T23:16:14.587Z,79.00
2017-08-27T23:18:40.813Z,79.10
2017-08-27T23:21:06.930Z,79.70
2017-08-27T23:23:33.060Z,79.00
2017-08-27T23:25:59.774Z,78.90
2017-08-27T23:28:26.014Z,79.20
2017-08-27T23:30:52.260Z,79.20
2017-08-27T23:33:18.766Z,79.30
2017-08-27T23:35:44.770Z,79.40
2017-08-27T23:38:10.787Z,79.40
2017-08-27T23:40:37.090Z,79.60
2017-08-27T23:43:03.106Z,79.90
2017-08-27T23:45:29.148Z,79.90
2017-08-27T23:47:55.193Z,79.90
2017-08-27T23:50:21.198Z,80.00
2017-08-27T23:52:47.218Z,80.10
2017-08-27T23:55:13.288Z,80.10
2017-08-27T23:57:39.309Z,79.80
